Raymertown, New York
Current Conditions -  °F | °C
As of 5:51 PM on Saturday 22 Nov 2014 (Local Time) from KALB Reporting Station
Light Rain Light Rain  
Wind Chill: 33°   Ceiling: 4000
Heat Index: 39°   Visibility: 10mi
Dew Point: 15°   Wind: 9mph
Humidity: 38%   Direction: 180°S
Pressure: 30.1"   Gusts: NA
Location:  42.7478°N, 73.6049°W
Report Text: KALB 222251Z 18008KT 10SM -RA BKN040 OVC050 04/M09 A3010 RMK AO2 RAE12B41 SLP198 PCPN VRY LGT P0000 T00391094
Loading
Personal Weather Stations






























Interactive Weather Map New forecast layout! Learn more

10-Day Weather Forecast

Advertisements
Track Severe Weather on mobile